Time;durP1;ratioP1;P1;durP2;ratioP2;P2;SDS_P1;SDS_P2;PMS_P1;PMS_P2;Temp;Humidity;BMP_temperature;BMP_pressure;BME280_temperature;BME280_humidity;BME280_pressure;Samples;Min_cycle;Max_cycle;Signal;HPM_P1;HPM_P2
2022/10/04 00:01:51;;;;;;;0.20;0.20;;;;;;;13.48;54.78;99781.41;5048974;28;20032;-87
2022/10/04 00:04:44;;;;;;;0.20;0.20;;;;;;;13.69;55.17;99803.00;5048261;28;20116;-85
2022/10/04 00:07:12;;;;;;;0.20;0.20;;;;;;;13.54;54.58;99794.50;5048327;28;20033;-85
2022/10/04 00:09:48;;;;;;;0.50;0.50;;;;;;;13.35;55.16;99775.56;5048277;28;20033;-85
2022/10/04 00:12:32;;;;;;;0.82;0.77;;;;;;;13.42;54.64;99771.84;5048241;28;20048;-85
2022/10/04 00:15:01;;;;;;;0.43;0.43;;;;;;;13.42;55.33;99781.56;5047889;28;20063;-85
2022/10/04 00:17:30;;;;;;;0.20;0.20;;;;;;;13.56;54.99;99775.91;5048014;28;20032;-85
2022/10/04 00:19:57;;;;;;;0.30;0.30;;;;;;;13.48;54.35;99778.75;5047770;28;20090;-85
2022/10/04 00:22:26;;;;;;;0.20;0.20;;;;;;;13.32;54.66;99748.25;5048624;28;20031;-85
2022/10/04 00:25:00;;;;;;;0.43;0.43;;;;;;;13.50;54.77;99784.00;5047389;28;20029;-85
2022/10/04 00:27:27;;;;;;;0.43;0.43;;;;;;;13.52;54.51;99777.78;5047591;28;20060;-85
2022/10/04 00:30:02;;;;;;;0.35;0.35;;;;;;;13.53;54.34;99795.44;5045206;28;20060;-85
2022/10/04 00:32:39;;;;;;;0.52;0.52;;;;;;;13.52;54.41;99777.78;5047835;28;20048;-85
2022/10/04 00:35:23;;;;;;;0.20;0.20;;;;;;;13.64;53.81;99795.16;5047666;28;20473;-86
2022/10/04 00:38:13;;;;;;;0.20;0.20;;;;;;;13.51;54.10;99804.31;5045856;28;20033;-86
2022/10/04 00:41:01;;;;;;;0.50;0.50;;;;;;;13.39;54.67;99792.25;5047669;28;20033;-85
2022/10/04 00:43:46;;;;;;;0.20;0.20;;;;;;;13.52;54.71;99804.28;5047189;28;20047;-85
2022/10/04 00:46:21;;;;;;;0.57;0.57;;;;;;;13.39;54.25;99798.44;5047935;28;20490;-86
2022/10/04 00:48:56;;;;;;;0.60;0.60;;;;;;;13.37;54.70;99791.41;5047292;28;20037;-86
2022/10/04 00:51:27;;;;;;;0.20;0.20;;;;;;;13.67;54.15;99804.78;5047650;28;20028;-86
2022/10/04 00:54:19;;;;;;;0.20;0.20;;;;;;;13.28;54.50;99781.88;5047661;28;20521;-87
2022/10/04 00:56:52;;;;;;;0.20;0.20;;;;;;;13.28;54.94;99816.31;5047348;28;20117;-87
2022/10/04 00:59:34;;;;;;;0.63;0.63;;;;;;;13.33;55.19;99802.94;5047344;28;20125;-86
2022/10/04 01:02:14;;;;;;;0.20;0.20;;;;;;;13.33;55.60;99813.56;5047148;28;20032;-86
2022/10/04 01:04:44;;;;;;;0.80;0.80;;;;;;;13.27;55.17;99801.34;5047039;28;20072;-88
2022/10/04 01:07:16;;;;;;;0.20;0.20;;;;;;;13.17;55.31;99790.09;5047279;28;20033;-86
2022/10/04 01:09:52;;;;;;;0.20;0.20;;;;;;;13.15;55.72;99802.50;5047389;28;20556;-86
2022/10/04 01:12:42;;;;;;;0.30;0.30;;;;;;;13.07;55.63;99778.00;5047833;28;20033;-85
2022/10/04 01:15:16;;;;;;;0.25;0.25;;;;;;;13.15;55.62;99806.94;5046474;28;20045;-86
2022/10/04 01:18:19;;;;;;;0.35;0.35;;;;;;;13.07;55.72;99793.88;5047296;28;20553;-86
2022/10/04 01:20:58;;;;;;;0.63;0.63;;;;;;;13.16;55.94;99811.31;5047310;28;20525;-85
2022/10/04 01:23:40;;;;;;;12.95;2.40;;;;;;;13.10;55.74;99814.09;5047589;28;20568;-86
2022/10/04 01:26:28;;;;;;;0.30;0.30;;;;;;;13.06;55.59;99803.56;5047426;28;20138;-85
2022/10/04 01:29:14;;;;;;;1.15;1.05;;;;;;;12.95;55.90;99800.31;5049493;28;20029;-86
2022/10/04 01:31:48;;;;;;;0.28;0.28;;;;;;;12.90;56.23;99786.34;5042099;28;20049;-86
2022/10/04 01:34:17;;;;;;;0.73;0.73;;;;;;;13.22;55.31;99812.06;5048575;28;20530;-85
2022/10/04 01:36:46;;;;;;;0.20;0.20;;;;;;;13.10;55.78;99806.16;5046788;28;20394;-88
2022/10/04 01:39:13;;;;;;;0.20;0.20;;;;;;;13.04;55.54;99807.19;5047164;28;20065;-84
2022/10/04 01:42:03;;;;;;;4.75;1.10;;;;;;;13.06;55.23;99831.84;5047081;28;20025;-85
2022/10/04 01:44:38;;;;;;;0.55;0.55;;;;;;;13.00;56.17;99832.84;5046820;28;20461;-85
2022/10/04 01:47:12;;;;;;;0.20;0.20;;;;;;;12.89;55.76;99803.97;5046588;28;20048;-86
2022/10/04 01:49:40;;;;;;;0.28;0.28;;;;;;;13.01;56.12;99834.59;5066272;28;20043;-85
2022/10/04 01:52:12;;;;;;;0.20;0.20;;;;;;;13.14;54.67;99835.19;5050592;28;20029;-86
2022/10/04 01:54:49;;;;;;;0.20;0.20;;;;;;;12.87;55.71;99810.22;5050499;28;20044;-85
2022/10/04 01:57:22;;;;;;;0.30;0.30;;;;;;;12.94;55.71;99822.41;5050719;28;20407;-86
2022/10/04 02:00:09;;;;;;;0.35;0.35;;;;;;;12.90;55.84;99826.03;5049298;28;20823;-86
2022/10/04 02:02:40;;;;;;;0.20;0.20;;;;;;;13.07;55.24;99823.00;5050264;28;20051;-86
2022/10/04 02:05:10;;;;;;;0.32;0.32;;;;;;;12.90;55.73;99810.16;5050711;28;20044;-86
2022/10/04 02:07:38;;;;;;;0.20;0.20;;;;;;;13.05;54.96;99807.16;5051088;28;20564;-85
2022/10/04 02:10:09;;;;;;;0.25;0.25;;;;;;;12.98;55.41;99839.09;5050618;28;20029;-88
2022/10/04 02:12:37;;;;;;;0.85;0.85;;;;;;;12.88;55.92;99828.72;5050281;28;20039;-86
2022/10/04 02:15:07;;;;;;;0.20;0.20;;;;;;;12.93;55.35;99827.72;5050170;28;20045;-85
2022/10/04 02:17:37;;;;;;;0.40;0.40;;;;;;;12.91;55.53;99833.06;5050566;28;20033;-86
2022/10/04 02:20:12;;;;;;;0.20;0.20;;;;;;;12.85;55.73;99820.84;5050342;28;20041;-86
2022/10/04 02:22:39;;;;;;;1.17;1.17;;;;;;;12.83;55.69;99813.84;5039944;28;20045;-85
2022/10/04 02:25:05;;;;;;;0.30;0.30;;;;;;;12.95;56.28;99837.38;5050266;28;20044;-86
2022/10/04 02:27:31;;;;;;;0.20;0.20;;;;;;;12.88;56.19;99847.25;5049081;28;20029;-85
2022/10/04 02:30:14;;;;;;;;;;;;;;;12.89;56.35;99848.13;5050590;28;20418;-85
2022/10/04 02:32:58;;;;;;;1.13;1.13;;;;;;;13.05;55.31;99828.34;5049548;28;19917;-85
2022/10/04 02:35:34;;;;;;;0.30;0.30;;;;;;;13.01;55.61;99837.25;5050235;28;20033;-86
2022/10/04 02:38:12;;;;;;;0.30;0.30;;;;;;;13.01;55.82;99846.97;5050228;28;20048;-85
2022/10/04 02:40:49;;;;;;;4.28;0.73;;;;;;;12.96;55.85;99836.50;5049950;28;20033;-86
2022/10/04 02:43:22;;;;;;;0.30;0.30;;;;;;;12.91;56.67;99841.00;5049330;28;20506;-86
2022/10/04 02:45:55;;;;;;;0.20;0.20;;;;;;;13.00;56.29;99826.69;5049804;28;20024;-86
2022/10/04 02:49:03;;;;;;;0.20;0.20;;;;;;;13.17;55.77;99842.19;5049839;28;20025;-86
2022/10/04 02:51:37;;;;;;;0.30;0.30;;;;;;;13.18;55.97;99851.91;5019716;28;20491;-85
2022/10/04 02:54:06;;;;;;;0.20;0.20;;;;;;;13.05;56.22;99827.44;5048903;28;20112;-86
2022/10/04 02:56:32;;;;;;;0.20;0.20;;;;;;;13.30;55.70;99856.91;5049443;28;20037;-85
2022/10/04 02:59:03;;;;;;;0.20;0.20;;;;;;;13.17;56.05;99844.84;5049339;28;20044;-85
2022/10/04 03:01:46;;;;;;;0.70;0.70;;;;;;;13.25;56.17;99858.78;5048666;28;20066;-85
2022/10/04 03:04:13;;;;;;;1.27;1.23;;;;;;;13.13;56.48;99833.47;5049416;28;20040;-84
2022/10/04 03:06:44;;;;;;;0.20;0.20;;;;;;;13.18;56.23;99846.59;5049025;28;20040;-84
2022/10/04 03:09:10;;;;;;;0.20;0.20;;;;;;;13.24;56.45;99843.81;5049554;28;20119;-83
2022/10/04 03:11:37;;;;;;;;;;;;;;;13.24;55.89;99857.91;5049842;28;20124;-86
2022/10/04 03:14:10;;;;;;;0.28;0.28;;;;;;;13.14;56.58;99842.28;5049146;28;19921;-85
2022/10/04 03:16:42;;;;;;;0.68;0.68;;;;;;;13.13;57.05;99857.28;5049358;28;20060;-87
2022/10/04 03:19:09;;;;;;;0.55;0.55;;;;;;;12.92;57.24;99848.06;5049217;28;20036;-83
2022/10/04 03:21:37;;;;;;;0.20;0.20;;;;;;;12.97;58.01;99856.75;5049579;28;20056;-84
2022/10/04 03:24:05;;;;;;;0.20;0.20;;;;;;;13.16;57.21;99851.94;5048550;28;20839;-84
2022/10/04 03:26:33;;;;;;;0.30;0.30;;;;;;;13.21;57.23;99859.78;5048785;28;20491;-85
2022/10/04 03:28:59;;;;;;;0.20;0.20;;;;;;;13.00;57.25;99856.69;5048962;28;20037;-86
2022/10/04 03:31:26;;;;;;;2.20;0.70;;;;;;;13.15;56.98;99851.97;5050017;28;20111;-85
2022/10/04 03:33:56;;;;;;;0.47;0.47;;;;;;;12.83;57.61;99821.78;5049634;28;20092;-88
2022/10/04 03:36:25;;;;;;;0.63;0.60;;;;;;;12.93;57.32;99852.44;5062201;28;20028;-89
2022/10/04 03:38:54;;;;;;;0.90;0.73;;;;;;;12.98;57.60;99855.84;5027556;28;20041;-88
2022/10/04 03:41:21;;;;;;;0.20;0.20;;;;;;;12.93;57.20;99844.50;5035496;28;20074;-88
2022/10/04 03:43:49;;;;;;;0.20;0.20;;;;;;;12.86;56.99;99843.75;5049601;28;20078;-89
2022/10/04 03:46:18;;;;;;;0.22;0.22;;;;;;;13.03;56.55;99866.34;5049017;28;20122;-92
2022/10/04 03:48:49;;;;;;;0.90;0.90;;;;;;;12.94;56.72;99867.41;5049457;28;20036;-94
2022/10/04 03:51:26;;;;;;;0.35;0.35;;;;;;;13.06;56.96;99883.03;5028780;28;20107;-90
2022/10/04 03:53:59;;;;;;;0.45;0.45;;;;;;;13.06;56.96;99892.75;5049543;28;20034;-90
2022/10/04 03:56:32;;;;;;;0.60;0.60;;;;;;;12.95;56.95;99850.63;5076248;28;20124;-93
2022/10/04 03:59:01;;;;;;;0.75;0.75;;;;;;;13.05;56.39;99868.06;5053295;28;20064;-93
2022/10/04 04:01:43;;;;;;;0.20;0.20;;;;;;;12.82;57.30;99859.72;5051991;28;20056;-94
2022/10/04 04:04:30;;;;;;;0.22;0.22;;;;;;;12.96;56.88;99884.16;5055313;28;20072;-92
2022/10/04 04:07:04;;;;;;;0.30;0.30;;;;;;;13.17;56.86;99893.38;5050661;28;20045;-94
2022/10/04 04:10:11;;;;;;;0.20;0.20;;;;;;;13.04;56.48;99897.22;5055925;28;20078;-93
2022/10/04 04:12:42;;;;;;;0.30;0.30;;;;;;;13.10;56.26;99877.66;5026299;28;20095;-91
2022/10/04 04:15:12;;;;;;;0.30;0.30;;;;;;;13.15;56.14;99895.19;5055678;28;20053;-92
2022/10/04 04:17:41;;;;;;;0.30;0.30;;;;;;;13.14;56.22;99888.16;5055926;28;20033;-91
2022/10/04 04:20:27;;;;;;;0.20;0.20;;;;;;;13.22;55.87;99898.56;5052934;28;20040;-91
2022/10/04 04:22:58;;;;;;;0.30;0.30;;;;;;;12.96;56.67;99889.44;5055546;28;20042;-90
2022/10/04 04:25:26;;;;;;;0.20;0.20;;;;;;;13.22;55.59;99906.53;5047857;28;20041;-89
2022/10/04 04:28:01;;;;;;;0.20;0.20;;;;;;;12.97;56.11;99898.25;5049686;28;20033;-94
2022/10/04 04:30:30;;;;;;;0.20;0.20;;;;;;;13.03;56.40;99887.53;5067381;28;20422;-93
2022/10/04 04:33:02;;;;;;;0.20;0.20;;;;;;;13.19;55.80;99909.25;5050060;28;20064;-96
2022/10/04 04:35:36;;;;;;;0.40;0.40;;;;;;;13.10;55.23;99909.44;5046885;28;20055;-91
2022/10/04 04:38:19;;;;;;;0.27;0.27;;;;;;;12.86;55.43;99879.94;5046378;28;20036;-94
2022/10/04 04:40:45;;;;;;;0.95;0.95;;;;;;;12.87;55.31;99873.75;5048757;28;20279;-89
2022/10/04 04:43:13;;;;;;;;;;;;;;;13.23;54.88;99910.94;5047916;28;20119;-94
2022/10/04 04:45:39;;;;;;;0.40;0.40;;;;;;;13.04;54.68;99873.41;5050170;28;19923;-92
2022/10/04 04:48:06;;;;;;;;;;;;;;;13.26;53.71;99929.41;5050207;28;20037;-94
2022/10/04 04:50:35;;;;;;;0.82;0.82;;;;;;;12.94;54.04;99869.19;5047044;28;20370;-96
2022/10/04 04:53:11;;;;;;;0.28;0.28;;;;;;;13.07;53.80;99889.22;5047064;28;20127;-91
2022/10/04 04:55:43;;;;;;;0.57;0.57;;;;;;;13.24;53.21;99905.59;5048596;28;20025;-91
2022/10/04 04:58:18;;;;;;;0.20;0.20;;;;;;;13.15;53.41;99920.81;5050068;28;20497;-90
2022/10/04 05:00:52;;;;;;;1.30;1.23;;;;;;;13.21;53.67;99918.03;5049652;28;20112;-89
2022/10/04 05:03:18;;;;;;;0.30;0.30;;;;;;;13.39;53.05;99916.78;5050076;28;20031;-90
2022/10/04 05:05:46;;;;;;;0.55;0.55;;;;;;;13.32;53.09;99920.44;5064810;28;20489;-90
2022/10/04 05:08:15;;;;;;;0.40;0.40;;;;;;;13.37;52.51;99939.78;5050751;28;20115;-91
2022/10/04 05:11:04;;;;;;;1.08;0.88;;;;;;;13.34;52.25;99931.91;5057898;28;20036;-90
2022/10/04 05:13:59;;;;;;;0.20;0.20;;;;;;;13.46;52.60;99931.63;5048948;28;20037;-91
2022/10/04 05:16:53;;;;;;;0.20;0.20;;;;;;;13.31;52.39;99918.69;5050232;28;20123;-93
2022/10/04 05:19:38;;;;;;;0.82;0.82;;;;;;;13.36;52.24;99908.88;5046563;28;20094;-90
2022/10/04 05:22:10;;;;;;;0.40;0.40;;;;;;;13.29;52.09;99896.69;5027509;28;20039;-92
2022/10/04 05:24:40;;;;;;;0.30;0.30;;;;;;;13.37;52.10;99897.41;5027544;28;20461;-90
2022/10/04 05:27:24;;;;;;;0.20;0.20;;;;;;;13.51;52.40;99947.44;5027181;28;20032;-91
2022/10/04 05:30:28;;;;;;;0.20;0.20;;;;;;;13.30;52.09;99916.94;5031631;28;20510;-88
2022/10/04 05:32:59;;;;;;;0.22;0.22;;;;;;;13.70;51.69;99959.34;5040818;28;20052;-90
2022/10/04 05:35:26;;;;;;;0.52;0.52;;;;;;;13.60;52.05;99944.56;5043575;28;20044;-88
2022/10/04 05:38:08;;;;;;;0.20;0.20;;;;;;;13.49;52.34;99938.66;5044612;28;20491;-89
2022/10/04 05:40:47;;;;;;;0.30;0.30;;;;;;;13.64;51.81;99967.44;5047774;28;20059;-88
2022/10/04 05:43:31;;;;;;;0.93;0.93;;;;;;;13.61;52.55;99944.53;5044977;28;20766;-88
2022/10/04 05:46:16;;;;;;;0.20;0.20;;;;;;;13.68;51.82;99932.00;5044963;28;20068;-88
2022/10/04 05:48:43;;;;;;;0.20;0.20;;;;;;;13.89;51.55;99935.03;5045580;28;20040;-89
2022/10/04 05:51:46;;;;;;;0.20;0.20;;;;;;;14.14;51.56;99960.03;5044954;28;20108;-88
2022/10/04 05:54:12;;;;;;;0.15;0.15;;;;;;;14.13;51.71;99968.91;5037822;28;20075;-89
2022/10/04 05:57:14;;;;;;;1.50;1.40;;;;;;;14.29;50.95;99931.38;5046131;28;20072;-88
2022/10/04 06:00:17;;;;;;;0.20;0.20;;;;;;;14.95;49.75;99966.75;5046386;28;20061;-90
2022/10/04 06:02:57;;;;;;;0.22;0.22;;;;;;;15.15;49.88;99976.81;4964278;28;20114;-87
2022/10/04 06:05:49;;;;;;;0.45;0.45;;;;;;;14.81;49.40;99980.44;5037265;28;20574;-88
2022/10/04 06:08:14;;;;;;;0.10;0.10;;;;;;;14.75;50.24;99991.22;5046877;28;20029;-88
2022/10/04 06:11:07;;;;;;;0.10;0.10;;;;;;;14.68;50.22;99979.00;5045858;28;20036;-89
2022/10/04 06:13:58;;;;;;;0.17;0.17;;;;;;;14.78;50.14;99990.25;5045300;28;20028;-87
2022/10/04 06:17:02;;;;;;;1.75;0.95;;;;;;;14.73;50.56;99989.50;5046440;28;20049;-89
2022/10/04 06:19:56;;;;;;;0.10;0.10;;;;;;;14.76;50.86;99995.59;5046743;28;20119;-89
2022/10/04 06:22:25;;;;;;;0.32;0.32;;;;;;;14.60;50.78;99976.56;5046911;28;20112;-88
2022/10/04 06:24:53;;;;;;;1.13;1.13;;;;;;;14.82;50.52;100008.69;5047022;28;20506;-88
2022/10/04 06:27:40;;;;;;;0.20;0.20;;;;;;;14.73;50.86;100010.75;5046605;28;20029;-88
2022/10/04 06:30:18;;;;;;;0.20;0.20;;;;;;;14.79;50.75;100015.88;5046918;28;20120;-89
2022/10/04 06:33:04;;;;;;;0.32;0.32;;;;;;;14.85;50.66;100018.38;5048816;28;20033;-89
2022/10/04 06:35:57;;;;;;;0.20;0.20;;;;;;;14.77;50.95;100015.06;5052840;28;20086;-89
2022/10/04 06:38:43;;;;;;;0.77;0.77;;;;;;;14.82;49.81;100023.78;5053788;28;20025;-89
2022/10/04 06:41:18;;;;;;;0.10;0.10;;;;;;;14.95;50.48;100025.19;5053981;28;20037;-89
2022/10/04 06:43:56;;;;;;;0.40;0.40;;;;;;;15.06;50.24;100022.25;5054140;28;20091;-89
2022/10/04 06:46:42;;;;;;;21.83;2.38;;;;;;;15.11;49.90;100030.94;5053079;28;20094;-89
2022/10/04 06:49:45;;;;;;;0.20;0.20;;;;;;;15.27;50.44;100026.03;5054271;28;20104;-88
2022/10/04 06:52:33;;;;;;;0.40;0.40;;;;;;;15.70;49.84;100027.41;5054133;28;20059;-89
2022/10/04 06:55:18;;;;;;;1.40;1.30;;;;;;;15.40;49.09;100006.16;5046607;28;20044;-88
2022/10/04 06:57:47;;;;;;;0.98;0.50;;;;;;;15.48;48.31;100027.22;5053493;28;20571;-89
2022/10/04 07:00:21;;;;;;;1.05;1.05;;;;;;;15.53;48.72;100013.78;5053786;28;20032;-88
2022/10/04 07:03:23;;;;;;;16.35;2.55;;;;;;;16.09;47.87;100029.75;5054050;28;20041;-89
2022/10/04 07:06:00;;;;;;;0.25;0.25;;;;;;;16.60;47.16;100037.84;5053592;28;20044;-88
2022/10/04 07:08:37;;;;;;;0.10;0.10;;;;;;;16.16;46.58;100008.28;5053895;28;20032;-89
2022/10/04 07:11:06;;;;;;;0.88;0.88;;;;;;;16.45;46.96;100039.25;5053853;28;20056;-88
2022/10/04 07:13:39;;;;;;;0.15;0.15;;;;;;;16.19;46.40;100045.44;5053751;28;20025;-88
2022/10/04 07:16:32;;;;;;;0.17;0.17;;;;;;;15.89;47.84;100051.69;5055054;28;20044;-88
2022/10/04 07:19:18;;;;;;;0.20;0.20;;;;;;;15.87;47.78;100050.00;5053800;28;20029;-88
2022/10/04 07:22:05;;;;;;;0.10;0.10;;;;;;;15.87;48.54;100050.00;5055386;28;20033;-89
2022/10/04 07:24:55;;;;;;;0.20;0.20;;;;;;;15.95;47.64;100050.63;5064762;28;20070;-89
2022/10/04 07:27:27;;;;;;;0.17;0.17;;;;;;;15.83;47.19;100035.91;5068270;28;20054;-93
2022/10/04 07:29:57;;;;;;;1.77;1.33;;;;;;;15.68;47.10;100031.91;5070835;28;20493;-85
2022/10/04 07:32:34;;;;;;;0.40;0.40;;;;;;;15.92;47.88;100048.06;5056725;28;20033;-87
2022/10/04 07:35:15;;;;;;;0.10;0.10;;;;;;;16.08;47.04;100048.44;5051500;28;20552;-88
2022/10/04 07:38:02;;;;;;;0.20;0.20;;;;;;;16.09;47.00;100060.84;5052725;28;20025;-89
2022/10/04 07:40:34;;;;;;;0.20;0.20;;;;;;;16.06;46.71;100039.63;5056049;28;20112;-89
2022/10/04 07:43:19;;;;;;;0.10;0.10;;;;;;;16.51;45.83;100063.00;5051500;28;20037;-90
2022/10/04 07:45:46;;;;;;;0.10;0.10;;;;;;;16.90;45.35;100069.69;5050327;28;20040;-91
2022/10/04 07:48:18;;;;;;;0.95;0.77;;;;;;;17.07;44.89;100056.66;5052386;28;20039;-87
2022/10/04 07:50:56;;;;;;;0.10;0.10;;;;;;;17.62;43.91;100064.41;5049246;28;20388;-87
2022/10/04 07:53:31;;;;;;;0.10;0.10;;;;;;;17.56;43.50;100063.78;5049075;28;20037;-87
2022/10/04 07:56:10;;;;;;;;;;;;;;;17.60;44.13;100068.94;5049598;28;20064;-89
2022/10/04 07:58:50;;;;;;;0.10;0.10;;;;;;;17.99;43.43;100052.31;5048284;28;20302;-88
2022/10/04 08:01:28;;;;;;;0.10;0.10;;;;;;;17.71;43.34;100040.03;5049282;28;20095;-87
2022/10/04 08:04:27;;;;;;;0.15;0.15;;;;;;;18.00;43.03;100062.06;5049397;28;20021;-88
2022/10/04 08:06:55;;;;;;;0.75;0.30;;;;;;;18.26;44.24;100070.84;5049523;28;20033;-88
2022/10/04 08:09:46;;;;;;;0.10;0.10;;;;;;;18.11;42.65;100071.47;5050313;28;20060;-88
2022/10/04 08:12:17;;;;;;;20.98;1.08;;;;;;;17.95;42.50;100058.72;5049618;28;20033;-88
2022/10/04 08:15:10;;;;;;;0.00;0.00;;;;;;;17.80;43.12;100052.16;5047934;28;20527;-89
2022/10/04 08:18:06;;;;;;;0.10;0.10;;;;;;;17.83;42.86;100060.03;5049203;28;20037;-89
2022/10/04 08:20:55;;;;;;;0.63;0.63;;;;;;;18.22;42.62;100062.06;5049132;28;20033;-88
2022/10/04 08:23:49;;;;;;;0.10;0.10;;;;;;;18.14;42.61;100068.66;5042939;28;20037;-88
2022/10/04 08:26:38;;;;;;;0.38;0.38;;;;;;;18.13;42.49;100058.91;5039741;28;20123;-88
2022/10/04 08:29:46;;;;;;;0.40;0.40;;;;;;;18.50;41.49;100055.59;5048947;28;20044;-88
2022/10/04 08:32:37;;;;;;;0.10;0.10;;;;;;;18.79;41.91;100058.81;5048972;28;20082;-87
2022/10/04 08:35:32;;;;;;;0.10;0.10;;;;;;;18.91;40.67;100065.50;5049147;28;20087;-88
2022/10/04 08:38:09;;;;;;;0.17;0.17;;;;;;;18.46;40.71;100063.78;5049595;28;20033;-89
2022/10/04 08:41:01;;;;;;;0.35;0.35;;;;;;;18.83;41.32;100059.56;5048889;28;20048;-89
2022/10/04 08:44:11;;;;;;;6.00;2.00;;;;;;;19.27;40.26;100052.25;5047941;28;20041;-87
2022/10/04 08:46:57;;;;;;;0.35;0.35;;;;;;;19.25;40.38;100053.28;5048627;28;20033;-84
2022/10/04 08:49:52;;;;;;;0.17;0.17;;;;;;;19.32;38.97;100060.06;5048105;28;20029;-83
2022/10/04 08:52:33;;;;;;;0.00;0.00;;;;;;;18.93;38.71;100069.81;5048922;28;20029;-85
2022/10/04 08:55:33;;;;;;;0.10;0.10;;;;;;;18.61;39.64;100072.03;5048179;28;20044;-84
2022/10/04 08:58:15;;;;;;;0.10;0.10;;;;;;;18.87;39.04;100075.41;5047250;28;20037;-85
2022/10/04 09:01:18;;;;;;;0.40;0.30;;;;;;;19.00;39.68;100061.53;5047573;28;20060;-87
2022/10/04 09:04:21;;;;;;;0.10;0.10;;;;;;;19.26;39.13;100058.56;5047518;28;20035;-85
2022/10/04 09:07:11;;;;;;;0.10;0.10;;;;;;;19.28;38.89;100063.84;5048151;28;20029;-84
2022/10/04 09:09:53;;;;;;;0.10;0.10;;;;;;;19.49;40.27;100062.88;5048090;28;20487;-85
2022/10/04 09:12:34;;;;;;;0.10;0.10;;;;;;;19.48;38.85;100061.13;5047090;28;20021;-85
2022/10/04 09:15:15;;;;;;;0.15;0.15;;;;;;;19.46;39.05;100040.72;5047317;28;20041;-85
2022/10/04 09:17:46;;;;;;;0.10;0.10;;;;;;;19.66;37.90;100047.81;5048349;28;20025;-83
2022/10/04 09:20:19;;;;;;;0.10;0.10;;;;;;;19.78;37.15;100068.69;5048055;28;20574;-85
2022/10/04 09:22:57;;;;;;;0.00;0.00;;;;;;;19.55;38.07;100050.13;5047810;28;20487;-85
2022/10/04 09:25:50;;;;;;;0.10;0.10;;;;;;;19.51;38.37;100062.81;5047024;28;20487;-86
2022/10/04 09:28:37;;;;;;;0.10;0.10;;;;;;;19.35;38.03;100067.09;5048072;28;20029;-85
2022/10/04 09:31:09;;;;;;;0.10;0.10;;;;;;;19.53;38.05;100063.59;5047910;28;20029;-85
2022/10/04 09:33:43;;;;;;;0.73;0.73;;;;;;;20.04;37.65;100064.75;5047676;28;20128;-85
2022/10/04 09:36:24;;;;;;;0.63;0.63;;;;;;;20.34;38.06;100050.81;5047639;28;20029;-84
2022/10/04 09:39:34;;;;;;;0.10;0.10;;;;;;;19.78;36.76;100070.50;5062825;28;20082;-86
2022/10/04 09:42:30;;;;;;;1.10;0.90;;;;;;;19.73;36.74;100067.16;5059443;28;20032;-85
2022/10/04 09:45:05;;;;;;;0.20;0.20;;;;;;;19.13;37.24;100062.72;5068158;28;20060;-83
2022/10/04 09:48:09;;;;;;;0.20;0.20;;;;;;;18.47;37.67;100033.47;5068564;28;20048;-83
2022/10/04 09:51:24;;;;;;;0.10;0.10;;;;;;;18.83;38.71;100064.91;5044917;28;20059;-88
2022/10/04 09:54:01;;;;;;;0.00;0.00;;;;;;;18.92;37.42;100068.09;5055429;28;20094;-86
2022/10/04 09:57:07;;;;;;;0.75;0.75;;;;;;;18.79;38.09;100029.44;5068895;28;20037;-87
2022/10/04 10:00:09;;;;;;;0.65;0.63;;;;;;;18.95;38.49;100054.59;5013697;28;20538;-88
2022/10/04 10:02:56;;;;;;;0.20;0.20;;;;;;;18.54;38.30;100059.00;5065273;28;20036;-88
2022/10/04 10:05:38;;;;;;;0.52;0.52;;;;;;;19.02;38.30;100057.00;5053559;28;20510;-87
2022/10/04 10:08:22;;;;;;;0.03;0.03;;;;;;;19.26;38.80;100055.00;5048191;28;20057;-86
2022/10/04 10:14:14;;;;;;;0.10;0.10;;;;;;;19.78;35.80;100057.13;5073300;28;20067;-85
2022/10/04 10:16:59;;;;;;;0.10;0.10;;;;;;;19.97;36.31;100062.44;5072477;28;20036;-86
2022/10/04 10:19:45;;;;;;;0.20;0.20;;;;;;;20.09;35.46;100064.53;5072666;28;20509;-85
2022/10/04 10:22:38;;;;;;;0.10;0.10;;;;;;;20.18;35.38;100073.94;5072319;28;20135;-85
2022/10/04 10:25:24;;;;;;;0.10;0.10;;;;;;;20.35;34.49;100073.97;5073457;28;20085;-85
2022/10/04 10:28:09;;;;;;;0.20;0.20;;;;;;;20.21;34.07;100071.13;5072281;28;20032;-82
2022/10/04 10:31:02;;;;;;;0.10;0.10;;;;;;;19.91;34.71;100073.44;5057495;28;20025;-83
2022/10/04 10:33:37;;;;;;;0.10;0.10;;;;;;;19.36;35.05;100051.00;5052686;28;20040;-85
2022/10/04 10:36:12;;;;;;;0.20;0.20;;;;;;;19.70;36.79;100056.59;5030309;28;20064;-83
2022/10/04 10:38:59;;;;;;;0.10;0.10;;;;;;;19.22;36.33;100075.69;5029283;28;20025;-83
2022/10/04 10:41:31;;;;;;;0.10;0.10;;;;;;;18.98;37.12;100074.94;5029962;28;20075;-84
2022/10/04 10:44:10;;;;;;;0.00;0.00;;;;;;;18.98;37.48;100058.91;5029876;28;20559;-86
2022/10/04 10:46:51;;;;;;;3.53;0.50;;;;;;;19.35;36.60;100078.66;5028789;28;20025;-84
2022/10/04 10:49:22;;;;;;;0.10;0.10;;;;;;;19.40;35.60;100076.66;5045503;28;20464;-83
2022/10/04 10:52:32;;;;;;;6.40;0.85;;;;;;;19.10;35.43;100073.56;5030142;28;20071;-85
2022/10/04 10:55:18;;;;;;;0.10;0.10;;;;;;;19.25;36.39;100048.81;5030223;28;20038;-85
2022/10/04 10:57:55;;;;;;;0.45;0.45;;;;;;;19.61;36.25;100074.78;5029928;28;20120;-85
2022/10/04 11:00:24;;;;;;;0.10;0.10;;;;;;;19.82;35.05;100058.72;5030108;28;20104;-85
2022/10/04 11:03:10;;;;;;;0.10;0.10;;;;;;;20.02;34.88;100076.50;5029516;28;20496;-84
2022/10/04 11:06:10;;;;;;;0.20;0.20;;;;;;;20.47;34.15;100066.28;5029951;28;20144;-83
2022/10/04 11:09:12;;;;;;;0.20;0.20;;;;;;;20.78;34.51;100067.44;5030022;28;20029;-86
2022/10/04 11:12:05;;;;;;;0.10;0.10;;;;;;;20.18;33.18;100074.81;5029936;28;20033;-85
2022/10/04 11:14:48;;;;;;;0.75;0.75;;;;;;;19.69;34.57;100074.44;5029962;28;20133;-89
2022/10/04 11:17:32;;;;;;;0.13;0.13;;;;;;;19.62;35.51;100078.34;5029996;28;20044;-86
2022/10/04 11:20:23;;;;;;;0.10;0.10;;;;;;;19.37;35.35;100075.91;5029402;28;20033;-87
2022/10/04 11:23:18;;;;;;;1.55;1.27;;;;;;;19.14;35.87;100081.38;5032079;28;20422;-86
2022/10/04 11:26:05;;;;;;;0.28;0.28;;;;;;;19.29;36.20;100079.81;5010264;28;20037;-85
2022/10/04 11:28:45;;;;;;;2.63;1.38;;;;;;;19.64;34.51;100055.91;5031351;28;20132;-84
2022/10/04 11:31:26;;;;;;;0.17;0.17;;;;;;;19.84;33.96;100078.25;5031384;28;20029;-89
2022/10/04 11:34:16;;;;;;;0.20;0.20;;;;;;;19.67;33.84;100079.84;5031862;28;20124;-86
2022/10/04 11:37:01;;;;;;;1.20;1.10;;;;;;;19.18;34.51;100062.53;5030961;28;20045;-88
2022/10/04 11:39:32;;;;;;;;;;;;;;;19.39;35.12;100077.59;5031304;28;20034;-86
2022/10/04 11:42:20;;;;;;;0.30;0.30;;;;;;;19.25;35.19;100077.34;5030480;28;19921;-90
2022/10/04 11:45:16;;;;;;;0.52;0.52;;;;;;;19.71;35.54;100077.03;5023466;28;20045;-86
2022/10/04 11:48:19;;;;;;;0.20;0.20;;;;;;;19.93;35.29;100082.31;5030453;28;20187;-85
2022/10/04 11:51:04;;;;;;;0.20;0.20;;;;;;;20.18;33.42;100079.31;5011948;28;20079;-85
2022/10/04 11:53:51;;;;;;;0.68;0.68;;;;;;;20.24;32.96;100062.94;5029908;28;20521;-86
2022/10/04 11:56:49;;;;;;;0.60;0.60;;;;;;;20.11;33.02;100080.53;5030460;28;20084;-87
2022/10/04 11:59:52;;;;;;;1.17;1.10;;;;;;;20.13;33.61;100076.00;5019181;28;20048;-86
2022/10/04 12:02:40;;;;;;;0.10;0.10;;;;;;;20.39;34.46;100075.56;5030858;28;20045;-86
2022/10/04 12:05:31;;;;;;;0.10;0.10;;;;;;;20.35;33.49;100086.50;5022492;28;20850;-86
2022/10/04 12:08:10;;;;;;;0.65;0.65;;;;;;;20.61;33.77;100074.50;5031232;28;20097;-88
2022/10/04 12:10:39;;;;;;;0.00;0.00;;;;;;;20.46;33.13;100037.75;5030382;28;20033;-88
2022/10/04 12:13:50;;;;;;;0.38;0.35;;;;;;;20.55;32.66;100075.66;5030911;28;20116;-91
2022/10/04 12:16:36;;;;;;;0.17;0.17;;;;;;;20.62;32.65;100065.50;5030360;28;20048;-86
2022/10/04 12:19:36;;;;;;;0.10;0.10;;;;;;;20.55;32.96;100078.34;5062036;28;20036;-87
2022/10/04 12:22:13;;;;;;;1.13;1.13;;;;;;;20.50;33.37;100069.66;5024659;28;20500;-87
2022/10/04 12:24:41;;;;;;;0.20;0.20;;;;;;;20.66;33.50;100075.16;5029778;28;20034;-88
2022/10/04 12:27:49;;;;;;;0.22;0.22;;;;;;;20.70;33.50;100063.34;5028650;28;20107;-87
2022/10/04 12:30:20;;;;;;;0.10;0.10;;;;;;;20.52;33.50;100075.81;5010298;28;20049;-88
2022/10/04 12:33:10;;;;;;;0.17;0.17;;;;;;;21.01;33.32;100071.63;5028622;28;20056;-86
2022/10/04 12:35:53;;;;;;;0.20;0.20;;;;;;;20.68;33.03;100067.91;5030189;28;20061;-85
2022/10/04 12:38:31;;;;;;;0.10;0.10;;;;;;;20.52;33.88;100073.13;5030120;28;20151;-87